Time;durP1;ratioP1;P1;durP2;ratioP2;P2;SDS_P1;SDS_P2;PMS_P1;PMS_P2;Temp;Humidity;BMP_temperature;BMP_pressure;BME280_temperature;BME280_humidity;BME280_pressure;Samples;Min_cycle;Max_cycle;Signal;HPM_P1;HPM_P2
2021/11/16 00:01:27;;;;;;;52.57;22.63;;;6.20;99.90;5.50;101501.00;;;;4934568;28;93008;-64
2021/11/16 00:03:54;;;;;;;30.43;18.73;;;5.60;99.90;5.50;101482.00;;;;4933857;28;94393;-66
2021/11/16 00:06:22;;;;;;;39.17;20.63;;;5.60;99.90;5.50;101486.00;;;;4948579;28;94232;-64
2021/11/16 00:08:48;;;;;;;40.53;21.13;;;5.60;99.90;5.50;101485.00;;;;4933295;28;94862;-64
2021/11/16 00:11:15;;;;;;;48.80;19.73;;;5.60;99.90;5.50;101484.00;;;;4933482;28;96555;-64
2021/11/16 00:13:41;;;;;;;42.63;23.87;;;5.60;99.90;5.50;101498.00;;;;4933386;28;93595;-64
2021/11/16 00:16:07;;;;;;;43.10;21.23;;;5.60;99.90;5.50;101487.00;;;;4948539;28;92954;-64
2021/11/16 00:18:33;;;;;;;39.70;19.87;;;5.50;99.90;5.50;101486.00;;;;4934083;28;92889;-63
2021/11/16 00:21:00;;;;;;;42.13;22.40;;;6.20;99.90;5.50;101496.00;;;;4933960;28;93034;-65
2021/11/16 00:23:34;;;;;;;48.23;21.27;;;5.70;99.90;5.50;101489.00;;;;4934163;28;93268;-64
2021/11/16 00:26:02;;;;;;;31.40;20.00;;;5.60;99.90;5.50;101499.00;;;;4933127;28;93125;-66
2021/11/16 00:28:28;;;;;;;41.03;20.53;;;5.70;99.90;5.50;101508.00;;;;4933681;28;92829;-64
2021/11/16 00:30:54;;;;;;;47.90;20.60;;;5.60;99.90;5.50;101505.00;;;;4932515;28;109086;-64
2021/11/16 00:33:21;;;;;;;51.90;23.37;;;5.60;99.90;5.50;101505.00;;;;4933124;28;122003;-65
2021/11/16 00:35:48;;;;;;;43.53;21.10;;;5.50;99.90;5.40;101495.00;;;;4932502;28;93814;-64
2021/11/16 00:38:16;;;;;;;36.87;20.90;;;5.60;99.90;5.50;101502.00;;;;4934407;28;92995;-64
2021/11/16 00:40:43;;;;;;;38.47;22.47;;;5.60;99.90;5.50;101508.00;;;;4933209;28;92725;-64
2021/11/16 00:43:10;;;;;;;44.00;20.70;;;5.60;99.90;5.40;101503.00;;;;4933086;28;94165;-65
2021/11/16 00:45:40;;;;;;;38.13;19.80;;;5.60;99.90;5.40;101501.00;;;;4932713;28;104833;-65
2021/11/16 00:48:07;;;;;;;38.13;20.60;;;5.60;99.90;5.40;101498.00;;;;4933730;28;92244;-65
2021/11/16 00:50:38;;;;;;;41.70;22.10;;;5.50;99.90;5.40;101493.00;;;;4932999;28;92832;-65
2021/11/16 00:53:04;;;;;;;34.23;19.97;;;5.50;99.90;5.30;101502.00;;;;4933169;28;94228;-65
2021/11/16 00:55:30;;;;;;;44.70;20.27;;;5.50;99.90;5.30;101488.00;;;;4932600;28;93930;-65
2021/11/16 00:57:56;;;;;;;40.07;21.17;;;5.50;99.90;5.30;101490.00;;;;4933273;28;93176;-65
2021/11/16 01:00:22;;;;;;;38.57;18.83;;;5.50;99.90;5.30;101488.00;;;;4932658;28;107924;-64
2021/11/16 01:02:48;;;;;;;37.27;22.73;;;6.00;99.90;5.30;101484.00;;;;4932406;28;93205;-64
2021/11/16 01:05:15;;;;;;;39.40;21.50;;;5.40;99.90;5.20;101493.00;;;;4933119;28;93677;-64
2021/11/16 01:07:43;;;;;;;37.93;20.67;;;5.40;99.90;5.20;101477.00;;;;4932719;28;98492;-65
2021/11/16 01:10:13;;;;;;;41.87;21.93;;;5.80;99.90;5.20;101473.00;;;;4932985;28;92686;-64
2021/11/16 01:12:40;;;;;;;35.23;20.60;;;5.60;99.90;5.30;101469.00;;;;4933487;28;92229;-66
2021/11/16 01:15:08;;;;;;;43.70;22.47;;;5.40;99.90;5.20;101490.00;;;;4933386;28;92786;-65
2021/11/16 01:17:34;;;;;;;45.30;20.27;;;5.40;99.90;5.30;101490.00;;;;4933064;28;93043;-65
2021/11/16 01:20:01;;;;;;;52.73;22.13;;;5.40;99.90;5.30;101478.00;;;;4947513;28;93997;-64
2021/11/16 01:22:27;;;;;;;53.33;22.97;;;5.50;99.90;5.30;101488.00;;;;4932347;28;108122;-65
2021/11/16 01:24:53;;;;;;;37.67;19.97;;;5.40;99.90;5.30;101472.00;;;;4931980;28;114303;-64
2021/11/16 01:27:20;;;;;;;48.07;23.27;;;5.60;99.90;5.30;101476.00;;;;4932745;28;92977;-65
2021/11/16 01:29:49;;;;;;;43.53;22.43;;;5.70;99.90;5.20;101469.00;;;;4933493;28;93244;-65
2021/11/16 01:34:58;;;;;;;51.03;22.47;;;6.10;99.90;5.30;101471.00;;;;4930960;28;92933;-64
2021/11/16 01:37:24;;;;;;;33.23;19.07;;;5.40;99.90;5.20;101467.00;;;;4933778;28;92065;-65
2021/11/16 01:39:52;;;;;;;42.40;22.03;;;5.60;99.90;5.30;101471.00;;;;4932887;28;92836;-64
2021/11/16 01:42:20;;;;;;;49.37;23.47;;;5.40;99.90;5.30;101472.00;;;;4932906;28;93280;-65
2021/11/16 01:44:48;;;;;;;40.73;22.43;;;5.80;99.90;5.20;101467.00;;;;4931555;28;93990;-64
2021/11/16 01:47:14;;;;;;;36.93;21.97;;;6.00;99.90;5.30;101464.00;;;;4932836;28;103263;-64
2021/11/16 01:49:41;;;;;;;38.63;21.23;;;5.90;99.90;5.20;101450.00;;;;4947273;28;93083;-65
2021/11/16 01:52:07;;;;;;;42.67;21.90;;;5.40;99.90;5.20;101460.00;;;;4932086;28;93824;-64
2021/11/16 01:54:34;;;;;;;41.23;19.77;;;5.40;99.90;5.20;101453.00;;;;4932178;28;93974;-64
2021/11/16 01:57:00;;;;;;;42.87;22.73;;;5.30;99.90;5.30;101453.00;;;;4947211;28;92962;-65
2021/11/16 01:59:27;;;;;;;46.37;21.73;;;5.40;99.90;5.30;101462.00;;;;4949958;28;92900;-66
2021/11/16 02:01:55;;;;;;;42.20;23.60;;;5.50;99.90;5.20;101459.00;;;;4936274;28;92352;-65
2021/11/16 02:04:22;;;;;;;41.87;22.27;;;5.40;99.90;5.30;101464.00;;;;4935436;28;93217;-65
2021/11/16 02:06:48;;;;;;;47.10;23.77;;;5.50;99.90;5.30;101475.00;;;;4935883;28;92823;-65
2021/11/16 02:09:16;;;;;;;48.67;22.63;;;5.40;99.90;5.30;101461.00;;;;4935547;28;93608;-65
2021/11/16 02:11:44;;;;;;;37.63;19.53;;;5.40;99.90;5.30;101469.00;;;;4935291;28;93962;-66
2021/11/16 02:14:16;;;;;;;36.90;22.07;;;6.00;99.90;5.20;101461.00;;;;4935732;28;92943;-64
2021/11/16 02:16:44;;;;;;;34.37;21.60;;;5.40;99.90;5.20;101460.00;;;;4936354;28;92983;-66
2021/11/16 02:19:15;;;;;;;40.07;19.83;;;5.40;99.90;5.30;101453.00;;;;4935313;28;98794;-64
2021/11/16 02:21:41;;;;;;;37.37;21.80;;;5.40;99.90;5.20;101459.00;;;;4935720;28;93265;-64
2021/11/16 02:24:08;;;;;;;45.87;24.27;;;5.30;99.90;5.20;101446.00;;;;4934575;28;115226;-65
2021/11/16 02:26:35;;;;;;;38.50;20.63;;;5.40;99.90;5.20;101449.00;;;;4950546;28;92094;-65
2021/11/16 02:29:02;;;;;;;47.40;23.80;;;5.50;99.90;5.30;101448.00;;;;4936036;28;93211;-65
2021/11/16 02:31:28;;;;;;;41.70;22.27;;;5.50;99.90;5.30;101439.00;;;;4935098;28;93504;-65
2021/11/16 02:33:54;;;;;;;42.27;22.57;;;5.40;99.90;5.30;101447.00;;;;4933679;28;122874;-64
2021/11/16 02:36:22;;;;;;;50.23;23.97;;;5.50;99.90;5.20;101441.00;;;;4933966;28;114287;-64
2021/11/16 02:38:49;;;;;;;47.90;23.60;;;5.40;99.90;5.20;101437.00;;;;4949366;28;92888;-64
2021/11/16 02:41:15;;;;;;;41.17;24.03;;;5.40;99.90;5.30;101445.00;;;;4935135;28;94476;-64
2021/11/16 02:43:41;;;;;;;39.33;19.63;;;5.60;99.90;5.20;101444.00;;;;4934953;28;94126;-65
2021/11/16 02:46:08;;;;;;;33.43;18.70;;;5.70;99.90;5.30;101436.00;;;;4935168;28;93124;-64
2021/11/16 02:48:35;;;;;;;38.27;19.43;;;5.40;99.90;5.20;101439.00;;;;4935409;28;93126;-64
2021/11/16 02:51:06;;;;;;;29.53;18.63;;;5.40;99.90;5.20;101441.00;;;;4935113;28;92520;-66
2021/11/16 02:53:35;;;;;;;39.83;21.20;;;5.70;99.90;5.10;101445.00;;;;4935034;28;92944;-64
2021/11/16 02:56:01;;;;;;;33.97;18.60;;;5.90;99.90;5.10;101447.00;;;;4949367;28;98148;-65
2021/11/16 02:58:26;;;;;;;39.77;20.13;;;5.40;99.90;5.10;101448.00;;;;4934170;28;109373;-64
2021/11/16 03:01:06;;;;;;;35.17;19.67;;;5.60;99.90;5.10;101449.00;;;;4934771;28;93249;-65
2021/11/16 03:03:33;;;;;;;50.10;20.57;;;5.30;99.90;5.10;101449.00;;;;4934449;28;93439;-64
2021/11/16 03:05:58;;;;;;;39.83;19.10;;;5.80;99.90;5.10;101444.00;;;;4934960;28;92900;-64
2021/11/16 03:08:27;;;;;;;40.73;20.93;;;5.70;99.90;5.10;101447.00;;;;4935120;28;92946;-64
2021/11/16 03:10:57;;;;;;;42.77;20.90;;;5.20;99.90;5.10;101451.00;;;;4934153;28;93598;-64
2021/11/16 03:13:25;;;;;;;37.43;18.67;;;5.20;99.90;5.10;101458.00;;;;4934145;28;93821;-64
2021/11/16 03:15:51;;;;;;;45.87;19.80;;;5.20;99.90;5.10;101448.00;;;;4934669;28;92456;-64
2021/11/16 03:18:17;;;;;;;34.00;18.93;;;5.30;99.90;5.10;101441.00;;;;4934950;28;93061;-64
2021/11/16 03:20:46;;;;;;;43.10;20.17;;;5.20;99.90;5.10;101432.00;;;;4934191;28;93953;-65
2021/11/16 03:23:15;;;;;;;41.70;21.53;;;5.80;99.90;5.10;101439.00;;;;4934507;28;93909;-65
2021/11/16 03:25:50;;;;;;;38.43;20.03;;;5.40;99.90;5.10;101446.00;;;;4934122;28;93319;-64
2021/11/16 03:28:17;;;;;;;43.33;20.27;;;5.30;99.90;5.10;101448.00;;;;4934659;28;93025;-64
2021/11/16 03:30:48;;;;;;;42.70;20.37;;;5.60;99.90;5.10;101437.00;;;;4933916;28;93384;-64
2021/11/16 03:33:14;;;;;;;41.20;21.87;;;5.40;99.90;5.10;101457.00;;;;4934841;28;93362;-65
2021/11/16 03:35:41;;;;;;;38.93;20.23;;;5.70;99.90;5.10;101458.00;;;;4934189;28;92619;-63
2021/11/16 03:38:08;;;;;;;45.57;21.50;;;5.30;99.90;5.10;101458.00;;;;4934789;28;93065;-65
2021/11/16 03:40:37;;;;;;;40.57;19.47;;;5.20;99.90;5.10;101461.00;;;;4933691;28;92877;-64
2021/11/16 03:43:05;;;;;;;35.60;19.73;;;5.30;99.90;5.10;101450.00;;;;4933798;28;92798;-64
2021/11/16 03:45:31;;;;;;;38.03;19.40;;;5.20;99.90;5.10;101450.00;;;;4934176;28;92604;-65
2021/11/16 03:47:59;;;;;;;39.13;20.63;;;5.50;99.90;5.10;101459.00;;;;4933343;28;109882;-64
2021/11/16 03:50:29;;;;;;;40.63;20.83;;;5.20;99.90;5.10;101447.00;;;;4931461;28;93899;-65
2021/11/16 03:52:57;;;;;;;42.70;19.83;;;5.20;99.90;5.10;101459.00;;;;4933524;28;92841;-66
2021/11/16 03:55:28;;;;;;;46.83;23.00;;;5.60;99.90;5.10;101455.00;;;;4932527;28;93068;-65
2021/11/16 03:57:55;;;;;;;36.23;19.20;;;5.40;99.90;5.10;101462.00;;;;4935109;28;92961;-64
2021/11/16 04:00:30;;;;;;;34.17;19.53;;;5.30;99.90;5.10;101448.00;;;;4932943;28;93892;-64
2021/11/16 04:02:57;;;;;;;41.47;21.00;;;6.00;99.90;5.10;101452.00;;;;4933659;28;93654;-64
2021/11/16 04:05:25;;;;;;;38.13;20.27;;;5.30;99.90;5.20;101463.00;;;;4934028;28;97136;-64
2021/11/16 04:07:52;;;;;;;41.37;20.90;;;5.30;99.90;5.20;101454.00;;;;4933639;28;92945;-65
2021/11/16 04:10:19;;;;;;;45.43;20.07;;;5.90;99.90;5.20;101456.00;;;;4932493;28;95582;-65
2021/11/16 04:12:45;;;;;;;36.90;19.83;;;5.50;99.90;5.20;101451.00;;;;4947553;28;94118;-64
2021/11/16 04:15:14;;;;;;;45.57;20.07;;;5.40;99.90;5.20;101453.00;;;;4948221;28;93090;-64
2021/11/16 04:17:43;;;;;;;36.53;19.63;;;5.40;99.90;5.20;101438.00;;;;4934875;28;93032;-64
2021/11/16 04:20:21;;;;;;;40.63;22.87;;;5.90;99.90;5.20;101436.00;;;;4930511;28;93098;-66
2021/11/16 04:22:47;;;;;;;42.17;22.07;;;5.30;99.90;5.20;101446.00;;;;4933117;28;92915;-64
2021/11/16 04:25:13;;;;;;;42.33;20.37;;;5.30;99.90;5.20;101438.00;;;;4933451;28;100344;-63
2021/11/16 04:27:41;;;;;;;39.43;21.60;;;5.70;99.90;5.20;101436.00;;;;4932722;28;109640;-64
2021/11/16 04:30:09;;;;;;;53.90;22.60;;;5.40;99.90;5.20;101432.00;;;;4933543;28;93511;-64
2021/11/16 04:32:35;;;;;;;43.57;20.13;;;5.40;99.90;5.20;101429.00;;;;4933419;28;92945;-65
2021/11/16 04:35:01;;;;;;;40.87;18.33;;;5.40;99.90;5.20;101420.00;;;;4932240;28;112315;-64
2021/11/16 04:37:27;;;;;;;43.90;22.03;;;5.70;99.90;5.20;101421.00;;;;4933490;28;94098;-65
2021/11/16 04:39:53;;;;;;;33.80;18.13;;;6.10;99.90;5.30;101425.00;;;;4932220;28;122521;-65
2021/11/16 04:42:18;;;;;;;49.97;21.87;;;5.40;99.90;5.30;101420.00;;;;4932715;28;94157;-64
2021/11/16 04:44:45;;;;;;;37.70;20.50;;;5.50;99.90;5.30;101422.00;;;;4933678;28;92889;-65
2021/11/16 04:47:14;;;;;;;40.43;20.90;;;5.50;99.90;5.30;101425.00;;;;4933844;28;92970;-65
2021/11/16 04:49:47;;;;;;;44.60;18.83;;;5.40;99.90;5.30;101422.00;;;;4932511;28;93696;-66
2021/11/16 04:52:24;;;;;;;38.77;17.93;;;5.40;99.90;5.30;101411.00;;;;4932866;28;92908;-64
2021/11/16 05:02:34;;;;;;;36.97;19.17;;;5.40;99.90;5.30;101409.00;;;;4930141;28;93117;-65
2021/11/16 05:03:05;;;;;;;37.60;19.80;;;5.40;99.90;5.30;101406.00;;;;4932408;28;93854;-64
2021/11/16 05:05:31;;;;;;;34.63;18.63;;;5.40;99.90;5.30;101396.00;;;;4933245;28;92842;-65
2021/11/16 05:08:01;;;;;;;40.27;19.30;;;5.40;99.90;5.30;101398.00;;;;4932074;28;108799;-65
2021/11/16 05:10:28;;;;;;;35.60;20.47;;;5.50;99.90;5.30;101385.00;;;;4932445;28;93930;-64
2021/11/16 05:12:57;;;;;;;47.90;21.87;;;6.00;99.90;5.30;101389.00;;;;4932644;28;93223;-64
2021/11/16 05:15:24;;;;;;;35.30;18.53;;;5.50;99.90;5.40;101389.00;;;;4933230;28;92932;-65
2021/11/16 05:17:51;;;;;;;37.10;19.47;;;6.10;99.90;5.40;101381.00;;;;4933959;28;92934;-65
2021/11/16 05:20:18;;;;;;;43.60;19.77;;;5.50;99.90;5.40;101386.00;;;;4933127;28;92498;-65
2021/11/16 05:22:51;;;;;;;45.67;21.43;;;5.50;99.90;5.40;101375.00;;;;4932898;28;92967;-64
2021/11/16 05:25:17;;;;;;;38.70;20.40;;;6.00;99.90;5.40;101378.00;;;;4933292;28;92894;-65
2021/11/16 05:27:43;;;;;;;44.07;20.23;;;5.50;99.90;5.40;101373.00;;;;4932673;28;93928;-63
2021/11/16 05:30:13;;;;;;;31.80;20.10;;;6.00;99.90;5.40;101372.00;;;;4931610;28;122466;-64
2021/11/16 05:32:41;;;;;;;49.33;20.63;;;5.60;99.90;5.40;101375.00;;;;4933068;28;92899;-63
2021/11/16 05:35:09;;;;;;;42.87;21.07;;;5.60;99.90;5.50;101368.00;;;;4935382;28;105133;-65
2021/11/16 05:37:35;;;;;;;35.97;19.60;;;5.60;99.90;5.40;101377.00;;;;4936862;28;93080;-63
2021/11/16 05:40:03;;;;;;;42.90;20.23;;;5.60;99.90;5.40;101368.00;;;;4934600;28;123213;-64
2021/11/16 05:42:28;;;;;;;41.23;19.80;;;5.60;99.90;5.40;101374.00;;;;4935985;28;93536;-65
2021/11/16 05:44:54;;;;;;;35.93;18.73;;;5.60;99.90;5.50;101377.00;;;;4937041;28;91969;-64
2021/11/16 05:47:21;;;;;;;34.13;17.63;;;5.60;99.90;5.50;101366.00;;;;4936390;28;92879;-64
2021/11/16 05:49:47;;;;;;;41.93;20.43;;;5.60;99.90;5.50;101368.00;;;;4936220;28;93569;-64
2021/11/16 05:52:14;;;;;;;39.90;20.30;;;5.60;99.90;5.50;101372.00;;;;4935275;28;94053;-65
2021/11/16 05:54:43;;;;;;;38.23;19.93;;;5.60;99.90;5.50;101361.00;;;;4936740;28;93157;-65
2021/11/16 05:57:08;;;;;;;43.07;19.63;;;5.60;99.90;5.50;101364.00;;;;4936305;28;94553;-64
2021/11/16 05:59:36;;;;;;;41.67;19.70;;;5.60;99.90;5.50;101357.00;;;;4934926;28;122898;-64
2021/11/16 06:02:11;;;;;;;31.90;17.03;;;5.60;99.90;5.50;101357.00;;;;4935757;28;93668;-65
2021/11/16 06:04:37;;;;;;;36.07;18.50;;;5.60;99.90;5.50;101351.00;;;;4934034;28;92922;-64
2021/11/16 06:07:04;;;;;;;35.03;18.17;;;5.60;99.90;5.50;101350.00;;;;4935692;28;92607;-65
2021/11/16 06:09:31;;;;;;;38.63;18.97;;;5.60;99.90;5.40;101370.00;;;;4936111;28;92393;-64
2021/11/16 06:12:03;;;;;;;29.77;16.93;;;5.60;99.90;5.40;101368.00;;;;4935244;28;92837;-64
2021/11/16 06:14:29;;;;;;;36.17;18.00;;;5.50;99.90;5.40;101358.00;;;;4916522;28;92879;-64
2021/11/16 06:16:55;;;;;;;33.40;18.30;;;5.50;99.90;5.30;101362.00;;;;4935426;28;94151;-64
2021/11/16 06:19:24;;;;;;;34.90;19.30;;;5.50;99.90;5.30;101351.00;;;;4935541;28;96984;-64
2021/11/16 06:21:51;;;;;;;31.03;18.33;;;5.50;99.90;5.30;101361.00;;;;4934975;28;93842;-65
2021/11/16 06:24:17;;;;;;;30.17;18.43;;;5.40;99.90;5.20;101359.00;;;;4935903;28;92844;-66
2021/11/16 06:26:44;;;;;;;38.47;18.43;;;6.10;99.90;5.20;101359.00;;;;4919549;28;92719;-64
2021/11/16 06:29:10;;;;;;;34.50;18.63;;;5.90;99.90;5.20;101365.00;;;;4929943;28;106858;-65
2021/11/16 06:31:36;;;;;;;36.27;18.93;;;5.20;99.90;5.10;101369.00;;;;4934668;28;94002;-65
2021/11/16 06:34:03;;;;;;;31.07;19.80;;;5.30;99.90;5.10;101371.00;;;;4935169;28;98680;-64
2021/11/16 06:36:39;;;;;;;34.87;18.33;;;5.40;99.90;5.00;101368.00;;;;4935693;28;93214;-63
2021/11/16 06:39:12;;;;;;;31.50;16.50;;;5.80;99.90;4.90;101376.00;;;;4935238;28;94123;-65
2021/11/16 06:41:39;;;;;;;35.73;18.67;;;5.10;99.90;4.90;101377.00;;;;4933488;28;93796;-66
2021/11/16 06:44:08;;;;;;;33.77;18.57;;;5.20;99.90;4.80;101390.00;;;;4935129;28;92826;-65
2021/11/16 06:46:34;;;;;;;32.17;17.67;;;5.00;99.90;4.80;101368.00;;;;4935082;28;98789;-65
2021/11/16 06:49:03;;;;;;;36.60;19.00;;;5.00;99.90;4.80;101359.00;;;;4935447;28;110817;-65
2021/11/16 06:51:31;;;;;;;35.70;18.90;;;5.40;99.90;4.70;101368.00;;;;4934632;28;93310;-66
2021/11/16 06:53:56;;;;;;;29.87;17.73;;;5.30;99.90;4.70;101368.00;;;;4949768;28;92946;-66
2021/11/16 06:56:25;;;;;;;39.20;18.27;;;5.30;99.90;4.70;101369.00;;;;4934345;28;109341;-65
2021/11/16 06:58:51;;;;;;;40.30;18.87;;;5.40;99.90;4.60;101370.00;;;;4935243;28;93049;-65
2021/11/16 07:01:17;;;;;;;34.37;18.33;;;5.50;99.90;4.60;101361.00;;;;4933397;28;120338;-64
2021/11/16 07:03:49;;;;;;;36.07;19.20;;;4.80;99.90;4.60;101372.00;;;;4933688;28;108639;-64
2021/11/16 07:06:15;;;;;;;41.57;19.80;;;5.40;99.90;4.60;101371.00;;;;4934106;28;100943;-65
2021/11/16 07:08:44;;;;;;;39.90;20.37;;;5.40;99.90;4.60;101373.00;;;;4934649;28;93888;-64
2021/11/16 07:11:18;;;;;;;30.80;19.33;;;4.80;99.90;4.60;101367.00;;;;4934437;28;93025;-66
2021/11/16 07:13:54;;;;;;;34.77;20.20;;;5.20;99.90;4.50;101356.00;;;;4934446;28;92748;-66
2021/11/16 07:16:21;;;;;;;41.67;21.00;;;4.80;99.90;4.50;101366.00;;;;4933036;28;92765;-65
2021/11/16 07:18:56;;;;;;;32.60;18.10;;;4.70;99.90;4.50;101374.00;;;;4932189;28;93818;-64
2021/11/16 07:21:24;;;;;;;41.67;19.20;;;4.80;99.90;4.60;101375.00;;;;4933943;28;94002;-64
2021/11/16 07:24:13;;;;;;;43.00;20.43;;;5.40;99.90;4.60;101366.00;;;;4935348;28;92270;-64
2021/11/16 07:26:41;;;;;;;38.80;20.87;;;5.30;99.90;4.70;101370.00;;;;4934192;28;101473;-65
2021/11/16 07:29:14;;;;;;;37.53;20.80;;;5.20;99.90;4.70;101372.00;;;;4934968;28;93345;-64
2021/11/16 07:31:42;;;;;;;35.47;20.10;;;5.30;99.90;4.70;101366.00;;;;4932778;28;93833;-65
2021/11/16 07:34:18;;;;;;;41.07;19.67;;;5.10;99.90;4.70;101374.00;;;;4935038;28;92752;-64
2021/11/16 07:37:08;;;;;;;41.27;20.27;;;4.80;99.90;4.80;101365.00;;;;4934819;28;92859;-64
2021/11/16 07:39:52;;;;;;;42.27;21.47;;;4.90;99.90;4.90;101361.00;;;;4934470;28;93112;-64
2021/11/16 07:42:23;;;;;;;38.83;20.67;;;6.50;99.90;4.90;101364.00;;;;4930508;28;93060;-65
2021/11/16 07:45:19;;;;;;;34.67;19.37;;;5.20;99.90;4.90;101368.00;;;;4934082;28;92706;-63
2021/11/16 07:47:54;;;;;;;43.73;22.23;;;5.10;99.90;5.00;101375.00;;;;4934765;28;92759;-65
2021/11/16 07:50:28;;;;;;;44.93;19.20;;;5.40;99.90;5.10;101368.00;;;;4932146;28;92284;-64
2021/11/16 07:53:06;;;;;;;35.23;21.07;;;5.20;99.90;5.20;101363.00;;;;4933955;28;108012;-63
2021/11/16 07:55:32;;;;;;;35.27;18.80;;;5.80;99.90;5.30;101361.00;;;;4932724;28;105333;-63
2021/11/16 07:58:08;;;;;;;43.53;20.40;;;5.40;99.90;5.40;101366.00;;;;4934400;28;93808;-64
2021/11/16 08:00:38;;;;;;;41.07;21.43;;;5.50;99.90;5.50;101367.00;;;;4933581;28;93289;-64
2021/11/16 08:03:18;;;;;;;34.80;20.60;;;5.60;99.90;5.70;101361.00;;;;4932032;28;93817;-65
2021/11/16 08:08:24;;;;;;;33.87;19.63;;;5.90;99.90;6.10;101358.00;;;;4933232;28;92821;-64
2021/11/16 08:11:13;;;;;;;42.17;21.00;;;6.10;99.90;6.30;101360.00;;;;4933996;28;94315;-64
2021/11/16 08:13:58;;;;;;;40.83;18.77;;;6.40;99.90;6.50;101349.00;;;;4934082;28;93511;-65
2021/11/16 08:16:29;;;;;;;48.80;20.53;;;6.50;99.90;6.70;101356.00;;;;4932225;28;92209;-66
2021/11/16 08:19:08;;;;;;;40.53;19.13;;;6.70;99.90;7.00;101355.00;;;;4933859;28;92966;-64
2021/11/16 08:21:41;;;;;;;37.10;18.17;;;6.90;99.90;7.20;101356.00;;;;4932558;28;92885;-66
2021/11/16 08:24:15;;;;;;;29.07;17.23;;;7.20;99.90;7.50;101355.00;;;;4930891;28;102343;-65
2021/11/16 08:26:48;;;;;;;37.23;17.93;;;7.40;99.90;7.70;101355.00;;;;4934639;28;92703;-65
2021/11/16 08:29:23;;;;;;;44.13;18.87;;;7.70;99.90;7.70;101347.00;;;;4934603;28;92959;-65
2021/11/16 08:31:58;;;;;;;26.93;15.90;;;7.80;99.90;7.70;101350.00;;;;4932692;28;93025;-65
2021/11/16 08:34:28;;;;;;;39.67;18.27;;;7.80;99.90;7.60;101352.00;;;;4916608;28;92748;-67
2021/11/16 08:36:55;;;;;;;33.83;18.50;;;7.70;99.90;7.60;101350.00;;;;4947394;28;92754;-64
2021/11/16 08:39:37;;;;;;;36.03;17.73;;;7.60;99.90;7.50;101348.00;;;;4933986;28;93040;-65
2021/11/16 08:42:21;;;;;;;33.33;16.70;;;7.60;99.90;7.50;101339.00;;;;4930967;28;94312;-65
2021/11/16 08:45:01;;;;;;;33.77;17.17;;;7.60;99.90;7.40;101347.00;;;;4933583;28;93020;-64
2021/11/16 08:47:44;;;;;;;37.93;17.33;;;7.60;99.90;7.40;101345.00;;;;4932752;28;92887;-65
2021/11/16 08:50:29;;;;;;;28.07;16.43;;;7.60;99.90;7.40;101350.00;;;;4947612;28;93917;-64
2021/11/16 08:53:21;;;;;;;32.50;15.60;;;7.50;99.90;7.50;101343.00;;;;4932488;28;93026;-64
2021/11/16 08:55:47;;;;;;;37.83;16.33;;;7.60;99.90;7.50;101344.00;;;;4933089;28;93448;-65
2021/11/16 08:58:15;;;;;;;27.63;15.57;;;7.50;99.90;7.50;101343.00;;;;4933570;28;93423;-65
2021/11/16 09:00:47;;;;;;;31.93;16.27;;;7.60;99.90;7.60;101349.00;;;;4933309;28;92918;-65
2021/11/16 09:03:25;;;;;;;31.60;15.90;;;7.60;99.90;7.60;101341.00;;;;4932645;28;93075;-65
2021/11/16 09:05:53;;;;;;;29.90;15.40;;;7.70;99.90;7.70;101345.00;;;;4933120;28;92909;-65
2021/11/16 09:08:26;;;;;;;28.13;14.67;;;7.70;99.90;7.80;101347.00;;;;4933704;28;92082;-65
2021/11/16 09:10:56;;;;;;;31.43;15.40;;;7.70;99.90;7.80;101338.00;;;;4933208;28;92915;-65
2021/11/16 09:13:25;;;;;;;37.23;16.60;;;7.80;99.90;7.90;101337.00;;;;4932820;28;93159;-64
2021/11/16 09:15:59;;;;;;;31.07;16.30;;;7.90;99.90;7.90;101335.00;;;;4932810;28;93811;-64
2021/11/16 09:18:47;;;;;;;34.13;16.50;;;8.00;99.90;8.00;101334.00;;;;4947756;28;92719;-65
2021/11/16 09:21:22;;;;;;;28.50;15.33;;;8.00;99.90;8.00;101330.00;;;;4948139;28;92961;-64
2021/11/16 09:24:06;;;;;;;30.83;16.20;;;8.00;99.90;8.10;101319.00;;;;4932215;28;93924;-64
2021/11/16 09:26:41;;;;;;;26.07;15.43;;;8.10;99.90;8.20;101322.00;;;;4947555;28;93608;-64
2021/11/16 09:29:15;;;;;;;36.77;16.57;;;8.20;99.90;8.30;101320.00;;;;4931120;28;92834;-64
2021/11/16 09:31:48;;;;;;;34.67;14.50;;;8.30;99.90;8.30;101316.00;;;;4932466;28;92955;-65
2021/11/16 09:34:17;;;;;;;34.47;15.40;;;8.30;99.90;8.40;101311.00;;;;4932246;28;92946;-64
2021/11/16 09:36:50;;;;;;;30.80;16.37;;;8.40;99.90;8.40;101301.00;;;;4933237;28;92834;-65
2021/11/16 09:39:25;;;;;;;38.67;14.90;;;8.50;99.90;8.40;101306.00;;;;4932268;28;92954;-64
2021/11/16 09:41:59;;;;;;;26.30;15.00;;;8.50;99.90;8.50;101310.00;;;;4932548;28;93754;-64
2021/11/16 09:44:41;;;;;;;23.63;14.50;;;8.50;99.90;8.50;101313.00;;;;4932340;28;93984;-64
2021/11/16 09:47:20;;;;;;;24.47;12.67;;;8.60;99.90;8.60;101305.00;;;;4913338;28;93029;-65
2021/11/16 09:49:54;;;;;;;22.30;13.13;;;8.60;99.90;8.60;101303.00;;;;4915326;28;92836;-65
2021/11/16 09:52:43;;;;;;;27.83;14.50;;;8.70;99.90;8.70;101294.00;;;;4932549;28;93042;-65
2021/11/16 09:55:17;;;;;;;26.83;13.83;;;8.70;99.90;8.70;101298.00;;;;4932294;28;93243;-65
2021/11/16 09:57:59;;;;;;;25.63;14.67;;;8.70;99.90;8.80;101288.00;;;;4931713;28;103384;-65
2021/11/16 10:00:39;;;;;;;27.83;14.73;;;8.80;99.90;8.80;101284.00;;;;4947455;28;92213;-66
2021/11/16 10:03:16;;;;;;;24.57;14.37;;;8.90;99.90;8.90;101288.00;;;;4932653;28;92835;-64
2021/11/16 10:05:53;;;;;;;24.33;13.60;;;8.90;99.90;8.90;101279.00;;;;4931774;28;107247;-65
2021/11/16 10:08:22;;;;;;;25.70;13.77;;;9.00;99.90;9.00;101282.00;;;;4931901;28;93733;-65
2021/11/16 10:10:56;;;;;;;25.23;12.83;;;9.10;99.90;9.10;101277.00;;;;4932254;28;92941;-64
2021/11/16 10:13:29;;;;;;;24.93;12.03;;;9.10;99.90;9.10;101270.00;;;;4932331;28;93035;-65
2021/11/16 10:16:02;;;;;;;21.87;13.10;;;9.10;99.90;9.20;101281.00;;;;4932359;28;93960;-64
2021/11/16 10:18:31;;;;;;;26.77;12.83;;;9.20;99.90;9.20;101280.00;;;;4932435;28;93000;-64
2021/11/16 10:20:57;;;;;;;23.67;12.77;;;9.20;99.90;9.20;101284.00;;;;4935634;28;93203;-66
2021/11/16 10:23:30;;;;;;;23.27;12.60;;;9.30;99.90;9.30;101286.00;;;;4950142;28;93129;-64
2021/11/16 10:25:58;;;;;;;23.87;12.57;;;9.30;99.90;9.30;101277.00;;;;4935764;28;92399;-64
2021/11/16 10:28:24;;;;;;;21.73;12.30;;;9.30;99.90;9.40;101277.00;;;;4934784;28;94698;-64
2021/11/16 10:30:51;;;;;;;28.60;14.23;;;9.40;99.90;9.40;101280.00;;;;4936255;28;92733;-64
2021/11/16 10:33:43;;;;;;;23.00;13.00;;;9.40;99.90;9.40;101282.00;;;;4934616;28;93665;-64
2021/11/16 10:36:13;;;;;;;23.93;13.33;;;9.40;99.90;9.40;101272.00;;;;4933743;28;93098;-64
2021/11/16 10:38:47;;;;;;;18.50;11.03;;;9.40;99.90;9.40;101264.00;;;;4935087;28;92892;-65
2021/11/16 10:41:17;;;;;;;22.33;12.33;;;9.40;99.90;9.40;101271.00;;;;4933340;28;93500;-66
2021/11/16 10:43:49;;;;;;;16.30;11.43;;;9.40;99.90;9.50;101264.00;;;;4935229;28;92686;-65
2021/11/16 10:46:18;;;;;;;20.07;11.50;;;9.50;99.90;9.50;101254.00;;;;4935192;28;93264;-64
2021/11/16 10:48:45;;;;;;;17.77;10.87;;;9.50;99.90;9.60;101255.00;;;;4934806;28;93832;-64
2021/11/16 10:51:13;;;;;;;21.00;12.53;;;9.60;99.90;9.60;101257.00;;;;4935184;28;92134;-64
2021/11/16 10:53:51;;;;;;;22.83;11.40;;;9.60;99.90;9.70;101248.00;;;;4935363;28;93042;-64
2021/11/16 10:56:22;;;;;;;17.00;11.27;;;9.70;99.90;9.80;101251.00;;;;4934285;28;113226;-64
2021/11/16 10:58:50;;;;;;;17.60;11.00;;;9.80;99.90;9.80;101251.00;;;;4933437;28;94116;-63
2021/11/16 11:01:19;;;;;;;18.97;11.53;;;9.80;99.90;9.80;101249.00;;;;4934976;28;92942;-65
2021/11/16 11:03:52;;;;;;;20.20;11.33;;;9.80;99.90;9.80;101249.00;;;;4934868;28;92833;-64
2021/11/16 11:06:35;;;;;;;29.33;12.43;;;9.80;99.90;9.70;101240.00;;;;4934209;28;94078;-65
2021/11/16 11:09:03;;;;;;;19.03;11.27;;;9.70;99.90;9.70;101235.00;;;;4934703;28;92850;-65